»·PEaware :: N900TB KSAC-KPDX

N900TB :: KSAC-KPDX

FLIGHT INFORMATION

Flight Status: Arrived
Operator: Privately registered:
United States
More flights under this callsign
Pilot: Saso K. (7898)
Aircraft: SOCATA TBM-900
(TBM9)
More flights by this aircraft type
Origin: KSAC Sacramento Executive
United States
Destination: KPDX Portland Intl
United States
More flights between these airports :: More routes between these airports
Route: +SAC J65 RBL MACHU TMBRS2
File this flight plan on PilotEdge
Remarks: FOR ENGINE FAILURE BLAME AUSTIN
Altitude:
(Current/Filed)
28,000ft
Speed:
(Current/Filed)
315kts
Departed: 04-Oct-18 01:44 PM
Arrived: 04-Oct-18 03:28 PM
Distance/Time
Traveled:
427nm/1:44
Distance/Time
To Go:
Arrived

Flight Plot

Page will automatically refresh every two minutes.

Flight plan parsing failed; only flown route is shown


Map Options




Map Legend


Flown Route
Filed Route
Departure Airport
Arrival Airport
Navaid (VOR, NDB)
Fix

Horizontal Profiles

Position Reports

Time Latitude Longitude Heading Altitude Ground
Speed
04-Oct-18 13:12 38.514721 -121.499260 46 19ft 0kts
04-Oct-18 13:13 38.514721 -121.499260 46 19ft 0kts
04-Oct-18 13:14 38.514721 -121.499260 46 19ft 0kts
04-Oct-18 13:15 38.514721 -121.499260 46 19ft 0kts
04-Oct-18 13:16 38.514721 -121.499260 46 19ft 0kts
04-Oct-18 13:17 38.514721 -121.499260 46 19ft 0kts
04-Oct-18 13:18 38.514721 -121.499260 46 19ft 0kts
04-Oct-18 13:26 38.514721 -121.499260 46 19ft 0kts
04-Oct-18 13:27 38.514721 -121.499260 46 19ft 0kts
04-Oct-18 13:28 38.514721 -121.499260 46 19ft 0kts
04-Oct-18 13:29 38.514721 -121.499260 46 19ft 0kts
04-Oct-18 13:30 38.514721 -121.499260 46 19ft 0kts
04-Oct-18 13:31 38.514721 -121.499260 46 19ft 0kts
04-Oct-18 13:32 38.514721 -121.499260 46 19ft 0kts
04-Oct-18 13:33 38.514721 -121.499260 46 19ft 0kts
04-Oct-18 13:34 38.514721 -121.499260 46 19ft 0kts
04-Oct-18 13:35 38.514721 -121.499260 46 19ft 0kts
04-Oct-18 13:36 38.514721 -121.499260 46 19ft 0kts
04-Oct-18 13:37 38.514721 -121.499260 46 19ft 0kts
04-Oct-18 13:38 38.514721 -121.499260 46 19ft 0kts
04-Oct-18 13:39 38.514772 -121.498747 133 19ft 1kts
04-Oct-18 13:40 38.514062 -121.497118 123 19ft 14kts
04-Oct-18 13:41 38.514220 -121.494905 31 19ft 6kts
04-Oct-18 13:42 38.515985 -121.493454 34 21ft 12kts
04-Oct-18 13:43 38.519179 -121.490480 103 23ft 0kts
04-Oct-18 13:44 38.519179 -121.490480 103 23ft 0kts
04-Oct-18 13:45 38.519109 -121.490022 99 23ft 8kts
04-Oct-18 13:46 38.507145 -121.499122 214 424ft 107kts
04-Oct-18 13:47 38.496834 -121.539044 263 2058ft 139kts
04-Oct-18 13:48 38.493823 -121.587962 263 3954ft 139kts
04-Oct-18 13:49 38.494239 -121.636846 302 5856ft 150kts
04-Oct-18 13:50 38.518186 -121.679521 303 7746ft 146kts
04-Oct-18 13:51 38.549602 -121.709015 343 9797ft 154kts
04-Oct-18 13:52 38.589819 -121.721643 342 11810ft 155kts
04-Oct-18 13:53 38.631619 -121.735434 342 13775ft 159kts
04-Oct-18 13:54 38.674297 -121.749677 341 15737ft 162kts
04-Oct-18 13:55 38.717764 -121.764219 341 17657ft 167kts
04-Oct-18 13:56 38.762601 -121.779240 340 19611ft 171kts
04-Oct-18 13:57 38.808668 -121.794706 340 21475ft 176kts
04-Oct-18 13:58 38.856118 -121.810647 340 23387ft 179kts
04-Oct-18 13:59 38.904689 -121.826980 339 25155ft 184kts
04-Oct-18 14:00 38.954758 -121.843861 338 26711ft 192kts
04-Oct-18 14:01 39.007009 -121.861519 338 28010ft 203kts
04-Oct-18 14:02 39.067292 -121.881937 339 28062ft 246kts
04-Oct-18 14:03 39.135752 -121.905105 339 28054ft 267kts
04-Oct-18 14:04 39.208427 -121.929757 339 28050ft 277kts
04-Oct-18 14:05 39.283105 -121.955131 340 28051ft 281kts
04-Oct-18 14:06 39.360164 -121.981427 340 27447ft 299kts
04-Oct-18 14:07 39.440617 -122.008898 340 27046ft 298kts
04-Oct-18 14:08 39.518283 -122.035508 340 27044ft 292kts
04-Oct-18 14:09 39.594942 -122.061827 340 27044ft 291kts
04-Oct-18 14:10 39.672467 -122.088498 340 27044ft 290kts
04-Oct-18 14:11 39.749629 -122.115116 340 27044ft 289kts
04-Oct-18 14:12 39.826880 -122.141815 339 27043ft 289kts
04-Oct-18 14:13 39.903878 -122.168496 340 27040ft 289kts
04-Oct-18 14:14 39.980763 -122.195196 340 27035ft 289kts
04-Oct-18 14:15 40.049963 -122.219286 340 27034ft 291kts
04-Oct-18 14:16 40.128128 -122.243113 344 27038ft 294kts
04-Oct-18 14:17 40.208278 -122.261830 344 27034ft 295kts
04-Oct-18 14:18 40.288496 -122.280574 344 27029ft 296kts
04-Oct-18 14:19 40.368839 -122.299394 344 27022ft 294kts
04-Oct-18 14:20 40.448393 -122.318067 344 27018ft 292kts
04-Oct-18 14:21 40.527439 -122.336668 344 27015ft 292kts
04-Oct-18 14:22 40.606713 -122.355375 344 27015ft 292kts
04-Oct-18 14:23 40.685367 -122.373976 344 27014ft 291kts
04-Oct-18 14:24 40.764018 -122.392625 344 27015ft 291kts
04-Oct-18 14:25 40.843156 -122.411423 344 27014ft 291kts
04-Oct-18 14:26 40.922275 -122.430269 344 27010ft 292kts
04-Oct-18 14:27 41.001996 -122.449291 344 27015ft 293kts
04-Oct-18 14:28 41.081341 -122.468282 344 27013ft 291kts
04-Oct-18 14:29 41.159562 -122.487056 343 27015ft 288kts
04-Oct-18 14:30 41.237902 -122.505910 343 27015ft 286kts
04-Oct-18 14:31 41.315502 -122.524616 343 27014ft 284kts
04-Oct-18 14:32 41.392522 -122.543230 343 27014ft 283kts
04-Oct-18 14:33 41.469769 -122.561951 343 27014ft 283kts
04-Oct-18 14:34 41.547535 -122.576588 350 27015ft 286kts
04-Oct-18 14:35 41.626905 -122.581958 350 27013ft 286kts
04-Oct-18 14:36 41.706079 -122.587115 350 27012ft 286kts
04-Oct-18 14:37 41.784726 -122.592252 350 27012ft 286kts
04-Oct-18 14:38 41.864198 -122.597446 350 27012ft 286kts
04-Oct-18 14:39 41.943120 -122.602623 350 27012ft 286kts
04-Oct-18 14:40 42.022441 -122.607839 350 27011ft 286kts
04-Oct-18 14:41 42.101472 -122.613052 350 27012ft 286kts
04-Oct-18 14:42 42.180743 -122.618290 350 27029ft 286kts
04-Oct-18 14:43 42.260056 -122.623573 350 27041ft 286kts
04-Oct-18 14:44 42.339512 -122.628873 350 27041ft 287kts
04-Oct-18 14:45 42.418956 -122.634187 350 27041ft 287kts
04-Oct-18 14:46 42.498408 -122.639512 350 27041ft 287kts
04-Oct-18 14:47 42.577879 -122.644859 350 27040ft 287kts
04-Oct-18 14:48 42.657260 -122.650215 350 27041ft 287kts
04-Oct-18 14:49 42.736876 -122.655588 350 27047ft 287kts
04-Oct-18 14:50 42.816448 -122.660987 350 27046ft 288kts
04-Oct-18 14:51 42.896494 -122.666421 350 27046ft 288kts
04-Oct-18 14:52 42.976286 -122.671862 350 27049ft 287kts
04-Oct-18 14:53 43.055685 -122.677280 350 27052ft 286kts
04-Oct-18 14:54 43.134495 -122.682684 350 27077ft 285kts
04-Oct-18 14:55 43.213640 -122.688116 350 27095ft 285kts
04-Oct-18 14:56 43.292762 -122.693565 350 27094ft 285kts
04-Oct-18 14:57 43.371793 -122.699024 350 27094ft 286kts
04-Oct-18 14:58 43.450881 -122.704465 350 27095ft 286kts
04-Oct-18 14:59 43.530264 -122.709942 350 27094ft 286kts
04-Oct-18 15:00 43.609376 -122.715418 350 27095ft 285kts
04-Oct-18 15:01 43.688264 -122.720893 350 27102ft 285kts
04-Oct-18 15:02 43.767217 -122.726379 350 27099ft 285kts
04-Oct-18 15:03 43.846304 -122.731895 350 27099ft 285kts
04-Oct-18 15:04 43.925236 -122.737417 350 27098ft 285kts
04-Oct-18 15:05 44.005575 -122.743072 350 26189ft 300kts
04-Oct-18 15:06 44.089604 -122.748938 351 24832ft 308kts
04-Oct-18 15:07 44.173261 -122.750694 357 24101ft 300kts
04-Oct-18 15:08 44.254510 -122.742884 357 23634ft 304kts
04-Oct-18 15:09 44.339164 -122.734531 357 22272ft 311kts
04-Oct-18 15:10 44.425472 -122.726000 358 20890ft 314kts
04-Oct-18 15:11 44.511432 -122.717476 358 19518ft 314kts
04-Oct-18 15:12 44.597095 -122.708949 358 18248ft 309kts
04-Oct-18 15:13 44.680425 -122.700591 358 17018ft 307kts
04-Oct-18 15:14 44.764158 -122.692167 359 15680ft 301kts
04-Oct-18 15:15 44.846332 -122.683900 359 14512ft 297kts
04-Oct-18 15:16 44.927944 -122.675674 359 13220ft 294kts
04-Oct-18 15:17 45.001444 -122.668256 0 12148ft 285kts
04-Oct-18 15:18 45.077140 -122.660586 1 10925ft 283kts
04-Oct-18 15:19 45.151427 -122.652992 1 9655ft 272kts
04-Oct-18 15:20 45.223249 -122.645658 2 8419ft 266kts
04-Oct-18 15:21 45.286070 -122.610094 30 7372ft 264kts
04-Oct-18 15:22 45.347326 -122.554940 30 6072ft 268kts
04-Oct-18 15:23 45.408533 -122.499083 39 4964ft 260kts
04-Oct-18 15:24 45.437841 -122.411147 65 3675ft 241kts
04-Oct-18 15:25 45.475548 -122.358805 330 2966ft 198kts
04-Oct-18 15:26 45.517205 -122.400234 322 2632ft 192kts
04-Oct-18 15:27 45.541312 -122.458680 298 1750ft 170kts
04-Oct-18 15:28 45.562417 -122.512923 298 938ft 153kts
04-Oct-18 15:29 45.576867 -122.549859 297 368ft 89kts
04-Oct-18 15:30 45.586754 -122.575917 231 19ft 16kts
04-Oct-18 15:31 45.585241 -122.577379 244 19ft 8kts
04-Oct-18 15:32 45.585497 -122.577894 125 19ft 8kts
04-Oct-18 15:33 45.584258 -122.575835 26 19ft 0kts
04-Oct-18 15:34 45.584257 -122.575835 26 19ft 0kts
04-Oct-18 15:35 45.584257 -122.575835 26 19ft 0kts

Navigation Log

Ident Type
Flight plan parsing failed, navigation log unavailable